Estación Temperatura (°C) Hum
rel
(%)
Precip
(mm)
Viento (km/h) Actual.
Act Mín Máx Act Dir Máx
Albatera 7,3 7,3 10,6 64 3,0 10 SSE 72 2020-01-20 08:47:00
Almoradí 8,1 6,7 10,2 83 4,2 6 NE 53 2020-01-20 10:03:00
Bigastro 8,6 6,9 8,7 78 1,0 15 NNE 40 2020-01-20 09:22:00
Callosa de Segura 8,8 7,2 10,4 63 4,4 15 E 48 2020-01-20 10:03:00
Catral 8,0 6,4 10,6 67 4,8 11 ENE 66 2020-01-20 10:02:00
Cox El Jazminado 8,3 6,7 10,0 74 8,4 10 O 68 2020-01-20 10:08:00
Cox centro 8,3 7,2 10,0 70 6,3 6 O 0 2020-01-20 10:08:00
Guardamar del Segura huerta 9,0 7,1 13,4 83 16,8 21 ENE 66 2020-01-20 10:08:00
Jacarilla El Copo 7,3 6,5 10,1 85 2,2 3 NE 61 2020-01-20 10:07:00
Jacarilla centro 7,4 6,7 10,3 86 3,0 0 NNO 56 2020-01-20 10:05:00
Orihuela centro 8,8 8,8 10,8 73 0,6 11 E 58 2020-01-20 07:46:00
Orihuela R. de Bonanza 8,6 8,2 10,1 73 0,4 10 OSO 50 2020-01-20 07:46:00
Orihuela Playa Flamenca 8,5 7,9 12,7 87 6,2 10 SE 68 2020-01-20 10:02:00
Orihuela Lo Capitán 6,9 6,5 8,5 84 2,3 6 SSO 15 2020-01-20 07:45:00
Rafal 7,9 6,6 10,5 81 4,8 6 ENE 60 2020-01-20 10:03:00
Redován 7,8 7,2 10,3 83 4,4 3 S 40 2020-01-20 09:12:00
Pilar de la Horadada Pinar de Campoverde 6,9 6,3 9,2 67 7,2 16 N 48 2020-01-20 10:09:00
San Pedro del Pinatar 8,3 7,7 12,7 75 8,4 8 NNO 90 2020-01-20 10:07:00
Proyectos meteorológicos en Granada
Granada UGR Ciencias 4,7 2,6 5,4 70 0,2 10 ENE 40 2020-01-20 10:02:00
Sierra Nevada UGR Albergue -7,1 -9,3 -7,1 83 0,0 10 ESE 40 2020-01-20 10:03:00